Форум клана ЧПУшников

Информация о пользователе

Привет, Гость! Войдите или зарегистрируйтесь.


Вы здесь » Форум клана ЧПУшников » Обмен без обмана! (уровень 1)


Обмен без обмана! (уровень 1)

Тем 1 страница 70 из 104

Тема Ответов Просмотров Последнее сообщение
650 153973 17-01-2017 13:57:37  Свирель
464 34302 17-01-2017 12:48:47  Kinetic
171 18142 17-01-2017 12:15:39  Gangster.Sergey
181 23560 16-01-2017 13:54:53  Killa312
333 74709 09-01-2017 21:27:25  сергей1974
998 94301 22-11-2016 15:17:51  Администратор
142 42297 02-07-2015 19:05:57  SherW00D
964 416996 28-05-2014 15:03:38  Svetim
863 246888 27-12-2012 16:36:09  saniaS
10 Важно: Закрыта Обмен файлами-4  Администратор  [ Тема 10 Page 1 Тема 10 Page 2 Тема 10 Page 3 … Тема 10 Page 19 ]
922 219253 21-04-2012 09:52:30  Сергей01
147 20247 Вчера 16:55:53  Pugalo13
681 174837 Вчера 10:02:25  0rca
20 5411 16-01-2017 13:48:47  grevaid
587 87771 14-01-2017 23:27:08  Serg12313
74 18326 14-01-2017 15:47:34  vis
79 5687 12-01-2017 21:25:27  ivasi
46 7933 12-01-2017 09:21:06  tilvikas
148 23104 09-01-2017 09:00:47  Temernik
385 34613 08-01-2017 10:22:24  Nikolaki81
49 3978 06-01-2017 09:04:58  aleksandr.g3
136 24946 01-01-2017 14:22:44  rukmi4
256 24835 30-12-2016 22:08:08  СергейБ
51 25596 24-12-2016 13:53:33  Бабайка
58 8602 24-12-2016 01:54:04  radinetz
261 64879 22-12-2016 15:04:12  igor-x
20 952 21-12-2016 21:01:51  radinetz
85 19706 21-12-2016 17:59:50  fotomig
53 9353 10-12-2016 06:26:05  Андрей Федчун
148 42858 06-12-2016 17:41:40  130467
22 2926 05-12-2016 14:04:07  maxkorsakov
39 6432 05-12-2016 10:43:42  ukvar
9 689 28-11-2016 21:10:31  Расулыч
33 на лазере  kos734kos
8 1148 25-11-2016 14:31:42  zorzormega
7 976 24-11-2016 12:10:34  DeKot
665 83866 22-11-2016 15:18:59  A_Lace
19 2436 14-11-2016 17:51:00  vasa29
452 115772 11-11-2016 19:53:51  tilvikas
358 71604 11-11-2016 10:25:55  Yarec
15 2393 08-11-2016 18:49:21  A_Lace
108 14434 25-10-2016 15:11:23  evgeniys
4 440 24-10-2016 23:20:13  belazov
98 7831 18-10-2016 19:56:48  Denis68
0 383 09-10-2016 15:32:06  uxtbl
26 3412 06-10-2016 08:37:10  Vaneich
57 25104 05-10-2016 17:02:05  Врединка
0 253 05-10-2016 05:42:05  mamay86
47 Герб рф  Zigraf
3 962 29-09-2016 21:50:33  megagad
32 5076 23-09-2016 13:05:04  vassabi
102 21413 14-09-2016 17:25:32  a_riva_82
128 19092 13-09-2016 17:52:14  smol310777
31 3291 06-09-2016 20:59:37  bikoz
13 2012 06-09-2016 13:10:50  denny_728
999 184159 05-09-2016 12:08:19  Kirill Go
54 Аквариумы  volobyr
8 2880 25-08-2016 14:53:38  Andrew40
55 Закрыта Конструкторы (вектор 2)  YTG2808
1 1128 21-08-2016 23:12:19  Администратор
31 5959 05-08-2016 19:59:17  marya_gomez
57 Закрыта кукольная мебель  vladivik
1 418 02-08-2016 09:09:17  Администратор
36 11084 01-08-2016 15:13:33  vitaliy stavash
63 12274 01-08-2016 12:40:59  Robotron
99 24089 30-07-2016 19:34:55  MAX3000
240 32826 03-07-2016 10:03:39  puikaxx
988 120674 24-06-2016 20:36:50  Администратор
17 7147 21-06-2016 04:09:01  Mavr54
4 669 05-06-2016 23:37:31  unoradean
79 1951 02-06-2016 18:05:31  mrtash
32 5525 26-05-2016 21:20:26  Mavr54
75 18420 03-04-2016 17:58:33  puikaxx
33 8697 26-03-2016 18:25:20  ky3nets
69 8 Марта  Yuriy86
44 6818 10-03-2016 20:10:16  Елена72
939 98933 28-02-2016 06:20:40  povvidlo

Вы здесь » Форум клана ЧПУшников » Обмен без обмана! (уровень 1)